createdAt,value
2023-01-20T00:01:46.409Z,30.27
2023-01-20T00:04:15.000Z,25.30
2023-01-20T00:06:43.309Z,23.30
2023-01-20T00:09:14.867Z,31.27
2023-01-20T00:11:43.143Z,26.77
2023-01-20T00:14:11.868Z,23.70
2023-01-20T00:16:41.545Z,27.67
2023-01-20T00:19:09.890Z,28.73
2023-01-20T00:21:38.170Z,25.55
2023-01-20T00:24:06.943Z,30.25
2023-01-20T00:26:35.255Z,29.17
2023-01-20T00:29:03.563Z,26.13
2023-01-20T00:31:32.811Z,28.55
2023-01-20T00:34:02.516Z,27.15
2023-01-20T00:36:32.098Z,29.13
2023-01-20T00:39:00.601Z,29.35
2023-01-20T00:41:28.867Z,29.02
2023-01-20T00:43:57.121Z,29.27
2023-01-20T00:46:25.627Z,27.95
2023-01-20T00:48:53.938Z,30.10
2023-01-20T00:51:23.519Z,31.02
2023-01-20T00:53:51.825Z,26.40
2023-01-20T00:56:20.145Z,28.95
2023-01-20T00:58:48.459Z,29.30
2023-01-20T01:01:16.831Z,29.65
2023-01-20T01:03:45.553Z,30.75
2023-01-20T01:06:14.924Z,34.53
2023-01-20T01:08:44.911Z,29.27
2023-01-20T01:11:13.745Z,33.05
2023-01-20T01:13:42.251Z,37.10
2023-01-20T01:16:12.531Z,33.35
2023-01-20T01:18:41.150Z,35.20
2023-01-20T01:21:09.982Z,31.80
2023-01-20T01:23:38.354Z,39.20
2023-01-20T01:26:08.107Z,35.53
2023-01-20T01:28:36.469Z,32.65
2023-01-20T01:31:05.167Z,29.80
2023-01-20T01:33:33.812Z,33.90
2023-01-20T01:36:03.302Z,34.63
2023-01-20T01:38:31.634Z,37.30
2023-01-20T01:41:00.092Z,31.20
2023-01-20T01:43:30.567Z,32.80
2023-01-20T01:45:59.570Z,38.33
2023-01-20T01:48:30.384Z,35.88
2023-01-20T01:51:00.194Z,37.65
2023-01-20T01:53:29.065Z,37.53
2023-01-20T01:55:59.438Z,36.45
2023-01-20T01:58:31.600Z,37.08
2023-01-20T02:01:00.127Z,37.67
2023-01-20T02:03:30.104Z,37.85
2023-01-20T02:05:59.089Z,31.58
2023-01-20T02:08:27.548Z,35.60
2023-01-20T02:10:55.794Z,31.30
2023-01-20T02:13:24.067Z,27.75
2023-01-20T02:15:55.563Z,36.22
2023-01-20T02:18:31.904Z,33.45
2023-01-20T02:21:17.918Z,33.97
2023-01-20T02:23:59.856Z,35.50
2023-01-20T02:26:49.767Z,32.58
2023-01-20T02:29:24.267Z,28.98
2023-01-20T02:32:05.245Z,31.05
2023-01-20T02:34:35.284Z,32.17
2023-01-20T02:37:08.173Z,28.00
2023-01-20T02:39:55.612Z,34.58
2023-01-20T02:42:25.211Z,29.02
2023-01-20T02:44:55.429Z,26.27
2023-01-20T02:47:28.644Z,36.55
2023-01-20T02:49:59.109Z,28.33
2023-01-20T02:52:28.506Z,31.45
2023-01-20T02:54:57.840Z,29.50
2023-01-20T02:57:28.077Z,28.92
2023-01-20T02:59:57.414Z,35.92
2023-01-20T03:02:28.259Z,32.72
2023-01-20T03:04:59.546Z,33.78
2023-01-20T03:07:29.927Z,32.13
2023-01-20T03:10:32.733Z,31.88
2023-01-20T03:13:04.679Z,35.85
2023-01-20T03:15:37.298Z,36.30
2023-01-20T03:18:07.055Z,34.60
2023-01-20T03:20:35.547Z,31.67
2023-01-20T03:23:03.897Z,32.13
2023-01-20T03:25:32.402Z,35.38
2023-01-20T03:28:00.779Z,44.50
2023-01-20T03:30:29.248Z,32.05
2023-01-20T03:32:57.778Z,41.88
2023-01-20T03:35:27.409Z,30.88
2023-01-20T03:38:04.174Z,33.30
2023-01-20T03:40:36.629Z,33.05
2023-01-20T03:43:10.054Z,33.22
2023-01-20T03:45:42.665Z,40.55
2023-01-20T03:48:14.856Z,36.55
2023-01-20T03:50:48.952Z,37.35
2023-01-20T03:53:24.586Z,45.22
2023-01-20T03:55:55.010Z,48.35
2023-01-20T03:58:26.037Z,49.53
2023-01-20T04:00:54.981Z,37.75
2023-01-20T04:03:28.681Z,37.17
2023-01-20T04:05:59.369Z,37.53
2023-01-20T04:08:30.058Z,36.90
2023-01-20T04:10:59.828Z,36.80
2023-01-20T04:13:28.158Z,36.70
2023-01-20T04:15:57.567Z,41.35
2023-01-20T04:18:25.901Z,41.95
2023-01-20T04:20:58.657Z,40.35
2023-01-20T04:23:30.800Z,31.90
2023-01-20T04:25:59.157Z,37.60
2023-01-20T04:28:27.488Z,33.63
2023-01-20T04:30:55.909Z,35.33
2023-01-20T04:33:24.276Z,41.65
2023-01-20T04:35:52.539Z,48.92
2023-01-20T04:38:22.928Z,41.47
2023-01-20T04:40:52.587Z,40.95
2023-01-20T04:43:20.842Z,38.63
2023-01-20T04:45:49.098Z,39.08
2023-01-20T04:48:17.370Z,42.97
2023-01-20T04:50:45.718Z,40.92
2023-01-20T04:53:18.922Z,42.45
2023-01-20T04:55:47.627Z,37.38
2023-01-20T04:58:17.493Z,40.25
2023-01-20T05:00:45.858Z,41.85
2023-01-20T05:03:14.171Z,38.30
2023-01-20T05:05:42.490Z,42.45
2023-01-20T05:08:10.788Z,44.95
2023-01-20T05:10:39.106Z,38.00
2023-01-20T05:13:07.422Z,47.58
2023-01-20T05:15:37.149Z,49.45
2023-01-20T05:18:05.403Z,46.47
2023-01-20T05:20:33.792Z,48.20
2023-01-20T05:23:02.247Z,42.00
2023-01-20T05:25:30.549Z,47.42
2023-01-20T05:27:59.799Z,47.28
2023-01-20T05:30:28.213Z,56.03
2023-01-20T05:32:59.576Z,45.63
2023-01-20T05:35:27.884Z,43.75
2023-01-20T05:37:56.509Z,44.00
2023-01-20T05:40:24.995Z,41.30
2023-01-20T05:42:53.309Z,42.92
2023-01-20T05:45:21.655Z,41.08
2023-01-20T05:47:49.979Z,48.92
2023-01-20T05:50:19.768Z,46.65
2023-01-20T05:52:49.470Z,46.47
2023-01-20T05:55:18.068Z,47.47
2023-01-20T05:57:46.459Z,52.67
2023-01-20T06:00:15.171Z,53.72
2023-01-20T06:02:43.624Z,41.38
2023-01-20T06:05:12.185Z,47.08
2023-01-20T06:07:41.833Z,57.67
2023-01-20T06:10:10.757Z,46.05
2023-01-20T06:12:39.255Z,48.65
2023-01-20T06:15:08.152Z,49.55
2023-01-20T06:17:36.547Z,54.10
2023-01-20T06:20:06.211Z,45.30
2023-01-20T06:22:34.509Z,53.28
2023-01-20T06:25:04.193Z,46.85
2023-01-20T06:27:32.700Z,44.15
2023-01-20T06:30:01.118Z,48.97
2023-01-20T06:32:29.555Z,54.20
2023-01-20T06:34:57.861Z,40.20
2023-01-20T06:37:26.135Z,46.65
2023-01-20T06:39:54.436Z,38.22
2023-01-20T06:42:24.021Z,51.15
2023-01-20T06:44:52.337Z,42.53
2023-01-20T06:47:20.646Z,44.08
2023-01-20T06:49:48.926Z,45.28
2023-01-20T06:52:28.147Z,39.92
2023-01-20T06:54:59.586Z,38.50
2023-01-20T06:57:29.473Z,44.47
2023-01-20T07:00:01.461Z,41.10
2023-01-20T07:02:29.776Z,44.65
2023-01-20T07:04:59.851Z,37.53
2023-01-20T07:07:28.143Z,42.92
2023-01-20T07:09:56.470Z,43.70
2023-01-20T07:12:24.957Z,42.90
2023-01-20T07:14:54.645Z,42.00
2023-01-20T07:17:22.948Z,43.97
2023-01-20T07:19:51.192Z,45.00
2023-01-20T07:22:19.540Z,45.08
2023-01-20T07:24:47.952Z,44.20
2023-01-20T07:27:16.409Z,40.78
2023-01-20T07:29:44.696Z,43.80
2023-01-20T07:32:15.186Z,39.03
2023-01-20T07:34:43.466Z,36.00
2023-01-20T07:37:11.830Z,42.03
2023-01-20T07:39:40.771Z,45.78
2023-01-20T07:42:09.089Z,38.42
2023-01-20T07:44:37.886Z,36.75
2023-01-20T07:47:06.273Z,50.63
2023-01-20T07:49:35.983Z,41.88
2023-01-20T07:52:04.274Z,52.40
2023-01-20T07:54:32.555Z,45.85
2023-01-20T07:57:00.887Z,47.97
2023-01-20T07:59:30.054Z,46.88
2023-01-20T08:01:58.468Z,44.42
2023-01-20T08:04:26.823Z,39.78
2023-01-20T08:06:56.579Z,43.60
2023-01-20T08:09:24.962Z,42.70
2023-01-20T08:11:53.225Z,44.75
2023-01-20T08:14:21.697Z,43.40
2023-01-20T08:16:50.065Z,43.42
2023-01-20T08:19:18.333Z,45.10
2023-01-20T08:21:46.740Z,48.70
2023-01-20T08:24:16.398Z,39.63
2023-01-20T08:26:44.772Z,46.15
2023-01-20T08:29:14.122Z,43.85
2023-01-20T08:31:42.963Z,40.33
2023-01-20T08:34:12.097Z,37.80
2023-01-20T08:36:42.319Z,41.05
2023-01-20T08:39:11.803Z,39.10
2023-01-20T08:41:43.344Z,41.95
2023-01-20T08:44:12.472Z,38.83
2023-01-20T08:46:41.957Z,39.15
2023-01-20T08:49:11.046Z,43.25
2023-01-20T08:51:39.568Z,34.00
2023-01-20T08:54:07.858Z,38.33
2023-01-20T08:56:36.758Z,35.55
2023-01-20T08:59:06.576Z,29.85
2023-01-20T09:01:53.387Z,30.95
2023-01-20T09:04:21.698Z,38.25
2023-01-20T09:06:52.568Z,31.42
2023-01-20T09:09:22.391Z,33.38
2023-01-20T09:11:53.696Z,37.15
2023-01-20T09:14:24.423Z,38.08
2023-01-20T09:16:53.042Z,37.50
2023-01-20T09:19:21.321Z,41.17
2023-01-20T09:21:49.606Z,39.67
2023-01-20T09:24:18.813Z,40.00
2023-01-20T09:26:51.490Z,38.58
2023-01-20T09:29:24.566Z,37.60
2023-01-20T09:31:57.948Z,37.10
2023-01-20T09:34:27.630Z,30.80
2023-01-20T09:36:58.621Z,38.45
2023-01-20T09:39:45.970Z,33.95
2023-01-20T09:42:41.197Z,37.38
2023-01-20T09:45:26.284Z,38.55
2023-01-20T09:48:03.069Z,35.28
2023-01-20T09:50:54.407Z,35.67
2023-01-20T09:53:32.449Z,37.10
2023-01-20T09:56:07.019Z,33.50
2023-01-20T09:58:39.252Z,42.22
2023-01-20T10:01:14.398Z,33.50
2023-01-20T10:03:51.249Z,44.88
2023-01-20T10:09:21.200Z,32.83
2023-01-20T10:11:51.412Z,49.30
2023-01-20T10:14:23.335Z,38.42
2023-01-20T10:16:57.172Z,27.83
2023-01-20T10:19:34.443Z,37.55
2023-01-20T10:22:08.798Z,28.95
2023-01-20T10:24:42.023Z,31.88
2023-01-20T10:27:10.289Z,29.77
2023-01-20T10:29:40.087Z,34.78
2023-01-20T10:32:13.941Z,32.30
2023-01-20T10:34:45.944Z,30.27
2023-01-20T10:37:15.715Z,32.50
2023-01-20T10:39:47.811Z,30.75
2023-01-20T10:42:16.829Z,24.10
2023-01-20T10:44:45.627Z,20.95
2023-01-20T10:47:17.942Z,28.42
2023-01-20T10:50:00.688Z,26.10
2023-01-20T10:52:36.102Z,22.95
2023-01-20T10:55:11.756Z,22.65
2023-01-20T10:57:41.509Z,22.33
2023-01-20T11:00:18.954Z,23.65
2023-01-20T11:02:49.221Z,32.22
2023-01-20T11:05:21.185Z,23.52
2023-01-20T11:07:50.841Z,20.02
2023-01-20T11:10:23.186Z,20.35
2023-01-20T11:12:55.734Z,20.30
2023-01-20T11:15:30.375Z,22.35
2023-01-20T11:18:14.059Z,23.23
2023-01-20T11:20:49.358Z,25.70
2023-01-20T11:23:32.259Z,19.55
2023-01-20T11:26:14.455Z,22.25
2023-01-20T11:28:50.240Z,20.20
2023-01-20T11:31:19.995Z,22.65
2023-01-20T11:33:58.837Z,18.73
2023-01-20T11:36:30.656Z,23.88
2023-01-20T11:38:59.616Z,19.02
2023-01-20T11:41:29.071Z,23.27
2023-01-20T11:43:59.710Z,21.05
2023-01-20T11:46:30.525Z,21.95
2023-01-20T11:49:18.317Z,22.80
2023-01-20T11:51:52.748Z,21.52
2023-01-20T11:54:22.601Z,20.67
2023-01-20T11:56:56.925Z,23.45
2023-01-20T11:59:28.349Z,22.25
2023-01-20T12:02:10.094Z,24.35
2023-01-20T12:07:36.847Z,21.00
2023-01-20T12:10:23.003Z,23.73
2023-01-20T12:12:58.629Z,19.95
2023-01-20T12:15:29.076Z,20.85
2023-01-20T12:18:02.297Z,21.50
2023-01-20T12:20:53.953Z,22.25
2023-01-20T12:23:38.262Z,21.13
2023-01-20T12:26:15.672Z,22.35
2023-01-20T12:28:59.448Z,21.95
2023-01-20T12:31:34.151Z,20.92
2023-01-20T12:34:05.459Z,23.50
2023-01-20T12:36:47.232Z,17.65
2023-01-20T12:39:24.113Z,18.58
2023-01-20T12:42:05.863Z,19.42
2023-01-20T12:44:39.877Z,21.27
2023-01-20T12:47:22.326Z,21.63
2023-01-20T12:50:10.494Z,23.38
2023-01-20T12:52:45.978Z,23.00
2023-01-20T12:55:25.801Z,24.92
2023-01-20T12:58:05.417Z,23.02
2023-01-20T13:01:06.860Z,31.45
2023-01-20T13:03:52.658Z,20.88
2023-01-20T13:06:48.880Z,20.73
2023-01-20T13:09:22.627Z,26.42
2023-01-20T13:12:09.157Z,21.80
2023-01-20T13:14:53.080Z,28.35
2023-01-20T13:17:32.107Z,39.03
2023-01-20T13:20:03.101Z,24.02
2023-01-20T13:22:34.144Z,102.47
2023-01-20T13:25:11.588Z,38.22
2023-01-20T13:27:51.285Z,27.90
2023-01-20T13:30:39.042Z,22.58
2023-01-20T13:33:20.459Z,23.13
2023-01-20T13:35:51.252Z,36.15
2023-01-20T13:38:29.003Z,24.88
2023-01-20T13:41:03.275Z,29.73
2023-01-20T13:43:47.857Z,23.20
2023-01-20T13:46:36.979Z,22.45
2023-01-20T13:49:26.338Z,24.00
2023-01-20T13:51:55.216Z,22.20
2023-01-20T13:54:53.169Z,22.17
2023-01-20T13:57:47.818Z,62.20
2023-01-20T14:00:20.376Z,29.20
2023-01-20T14:02:50.314Z,29.38
2023-01-20T14:05:21.466Z,25.73
2023-01-20T14:07:52.342Z,33.28
2023-01-20T14:10:32.762Z,31.95
2023-01-20T14:13:02.867Z,34.08
2023-01-20T14:15:50.098Z,36.78
2023-01-20T14:18:23.862Z,27.40
2023-01-20T14:20:58.500Z,32.70
2023-01-20T14:23:29.642Z,29.30
2023-01-20T14:25:59.118Z,27.67
2023-01-20T14:28:35.470Z,27.65
2023-01-20T14:31:40.904Z,29.45
2023-01-20T14:34:35.707Z,32.05
2023-01-20T14:37:19.655Z,26.42
2023-01-20T14:39:54.922Z,32.53
2023-01-20T14:42:26.449Z,29.52
2023-01-20T14:44:56.886Z,28.85
2023-01-20T14:47:27.954Z,25.85
2023-01-20T14:49:56.954Z,24.40
2023-01-20T14:52:38.007Z,26.95
2023-01-20T14:55:17.233Z,25.80
2023-01-20T14:57:47.665Z,27.80
2023-01-20T15:00:23.456Z,28.23
2023-01-20T15:03:10.627Z,27.48
2023-01-20T15:05:49.967Z,25.30
2023-01-20T15:08:34.338Z,26.77
2023-01-20T15:11:15.421Z,37.60
2023-01-20T15:13:45.830Z,26.52
2023-01-20T15:16:19.034Z,32.75
2023-01-20T15:19:13.951Z,29.52
2023-01-20T15:21:48.404Z,32.83
2023-01-20T15:24:22.347Z,29.05
2023-01-20T15:26:54.567Z,27.33
2023-01-20T15:29:24.923Z,27.65
2023-01-20T15:31:56.022Z,32.65
2023-01-20T15:34:31.287Z,28.38
2023-01-20T15:37:00.296Z,30.90
2023-01-20T15:39:44.409Z,31.65
2023-01-20T15:42:21.061Z,32.55
2023-01-20T15:44:50.612Z,60.53
2023-01-20T15:47:29.333Z,30.70
2023-01-20T15:50:01.658Z,37.65
2023-01-20T15:52:30.628Z,32.95
2023-01-20T15:55:11.575Z,44.28
2023-01-20T15:57:49.443Z,30.63
2023-01-20T16:00:29.117Z,30.92
2023-01-20T16:03:11.327Z,30.65
2023-01-20T16:05:43.272Z,32.05
2023-01-20T16:08:20.255Z,118.82
2023-01-20T16:10:52.548Z,63.60
2023-01-20T16:13:35.173Z,74.03
2023-01-20T16:16:14.558Z,154.82
2023-01-20T16:18:48.218Z,157.95
2023-01-20T16:21:20.590Z,71.07
2023-01-20T16:23:50.696Z,83.70
2023-01-20T16:26:33.758Z,60.90
2023-01-20T16:29:11.410Z,52.55
2023-01-20T16:31:50.793Z,41.72
2023-01-20T16:34:24.183Z,31.98
2023-01-20T16:36:57.438Z,37.03
2023-01-20T16:39:27.394Z,30.38
2023-01-20T16:42:05.047Z,31.45
2023-01-20T16:44:43.551Z,31.42
2023-01-20T16:47:19.377Z,30.48
2023-01-20T16:49:57.651Z,30.83
2023-01-20T16:52:30.308Z,29.58
2023-01-20T16:54:59.871Z,33.38
2023-01-20T16:57:31.285Z,27.42
2023-01-20T17:00:02.463Z,32.15
2023-01-20T17:02:34.595Z,29.92
2023-01-20T17:05:10.068Z,27.83
2023-01-20T17:07:45.672Z,30.27
2023-01-20T17:10:15.456Z,26.90
2023-01-20T17:12:52.608Z,33.85
2023-01-20T17:15:26.965Z,29.83
2023-01-20T17:17:58.167Z,32.65
2023-01-20T17:20:28.388Z,29.75
2023-01-20T17:22:58.146Z,27.60
2023-01-20T17:25:27.872Z,31.25
2023-01-20T17:27:59.051Z,31.08
2023-01-20T17:30:29.285Z,31.20
2023-01-20T17:32:58.859Z,31.45
2023-01-20T17:35:31.842Z,30.92
2023-01-20T17:38:02.013Z,35.25
2023-01-20T17:40:30.565Z,32.92
2023-01-20T17:43:00.179Z,45.00
2023-01-20T17:45:49.345Z,36.42
2023-01-20T17:48:17.676Z,33.60
2023-01-20T17:50:45.971Z,33.90
2023-01-20T17:53:14.313Z,29.15
2023-01-20T17:55:42.694Z,28.77
2023-01-20T17:58:12.594Z,28.13
2023-01-20T18:00:41.035Z,53.42
2023-01-20T18:03:09.480Z,33.85
2023-01-20T18:05:41.147Z,30.40
2023-01-20T18:08:09.848Z,46.33
2023-01-20T18:10:38.140Z,35.97
2023-01-20T18:13:06.430Z,36.25
2023-01-20T18:15:41.768Z,26.23
2023-01-20T18:18:11.261Z,31.30
2023-01-20T18:20:39.635Z,33.00
2023-01-20T18:23:08.846Z,30.88
2023-01-20T18:25:37.081Z,59.30
2023-01-20T18:28:05.519Z,33.38
2023-01-20T18:30:33.960Z,31.52
2023-01-20T18:33:03.606Z,31.35
2023-01-20T18:35:32.082Z,34.30
2023-01-20T18:38:01.713Z,36.28
2023-01-20T18:40:30.310Z,38.60
2023-01-20T18:42:58.635Z,90.22
2023-01-20T18:45:28.892Z,60.13
2023-01-20T18:47:57.182Z,48.92
2023-01-20T18:50:26.787Z,34.30
2023-01-20T18:52:56.311Z,30.48
2023-01-20T18:55:24.649Z,29.77
2023-01-20T18:57:52.900Z,38.22
2023-01-20T19:00:21.553Z,28.45
2023-01-20T19:02:52.176Z,37.88
2023-01-20T19:05:20.440Z,28.75
2023-01-20T19:07:51.387Z,31.73
2023-01-20T19:10:20.203Z,30.38
2023-01-20T19:12:48.485Z,34.10
2023-01-20T19:15:16.783Z,31.42
2023-01-20T19:17:45.171Z,29.65
2023-01-20T19:20:13.451Z,30.85
2023-01-20T19:22:41.916Z,25.88
2023-01-20T19:25:12.331Z,29.08
2023-01-20T19:27:40.637Z,25.02
2023-01-20T19:30:10.170Z,24.25
2023-01-20T19:32:41.032Z,27.80
2023-01-20T19:35:10.164Z,24.20
2023-01-20T19:37:38.614Z,25.90
2023-01-20T19:40:07.184Z,41.25
2023-01-20T19:42:36.860Z,25.60
2023-01-20T19:45:05.460Z,28.98
2023-01-20T19:47:34.838Z,27.15
2023-01-20T19:50:03.144Z,24.08
2023-01-20T19:52:31.446Z,21.70
2023-01-20T19:54:59.756Z,22.02
2023-01-20T19:57:28.157Z,21.25
2023-01-20T19:59:57.888Z,21.92
2023-01-20T20:02:27.397Z,21.67
2023-01-20T20:04:55.790Z,21.80
2023-01-20T20:07:24.221Z,31.58
2023-01-20T20:09:52.552Z,27.42
2023-01-20T20:12:21.026Z,54.00
2023-01-20T20:14:49.407Z,50.78
2023-01-20T20:17:20.935Z,27.60
2023-01-20T20:19:49.260Z,26.67
2023-01-20T20:22:17.650Z,26.05
2023-01-20T20:24:46.867Z,41.03
2023-01-20T20:27:15.154Z,29.75
2023-01-20T20:29:43.414Z,21.00
2023-01-20T20:32:11.747Z,37.72
2023-01-20T20:34:41.411Z,23.48
2023-01-20T20:37:09.732Z,19.10
2023-01-20T20:39:38.067Z,20.38
2023-01-20T20:42:06.464Z,22.38
2023-01-20T20:44:34.767Z,20.15
2023-01-20T20:47:03.710Z,19.50
2023-01-20T20:49:31.965Z,22.98
2023-01-20T20:52:01.646Z,20.48
2023-01-20T20:54:29.994Z,17.85
2023-01-20T20:56:58.347Z,22.27
2023-01-20T20:59:26.617Z,18.63
2023-01-20T21:01:55.257Z,19.33
2023-01-20T21:04:23.605Z,18.40
2023-01-20T21:06:51.898Z,19.10
2023-01-20T21:09:21.601Z,23.75
2023-01-20T21:11:50.427Z,23.23
2023-01-20T21:14:21.381Z,23.13
2023-01-20T21:16:49.808Z,25.42
2023-01-20T21:19:18.141Z,27.65
2023-01-20T21:21:46.571Z,27.00
2023-01-20T21:24:14.856Z,26.98
2023-01-20T21:26:44.803Z,28.33
2023-01-20T21:29:13.465Z,33.65
2023-01-20T21:31:41.887Z,31.17
2023-01-20T21:34:14.536Z,27.70
2023-01-20T21:36:42.936Z,31.25
2023-01-20T21:39:13.102Z,29.25
2023-01-20T21:41:41.609Z,30.55
2023-01-20T21:44:29.683Z,29.55
2023-01-20T21:46:58.676Z,26.92
2023-01-20T21:49:45.175Z,29.05
2023-01-20T21:52:31.647Z,28.05
2023-01-20T21:54:59.974Z,28.25
2023-01-20T21:57:28.992Z,29.75
2023-01-20T21:59:58.693Z,27.30
2023-01-20T22:02:27.898Z,31.40
2023-01-20T22:04:56.280Z,28.08
2023-01-20T22:07:25.190Z,27.58
2023-01-20T22:09:53.622Z,26.70
2023-01-20T22:12:21.928Z,24.92
2023-01-20T22:14:50.500Z,26.50
2023-01-20T22:17:20.406Z,25.67
2023-01-20T22:19:48.764Z,25.50
2023-01-20T22:22:17.559Z,25.85
2023-01-20T22:24:45.855Z,31.63
2023-01-20T22:27:14.159Z,23.92
2023-01-20T22:29:42.507Z,26.08
2023-01-20T22:32:10.907Z,27.08
2023-01-20T22:34:40.784Z,25.15
2023-01-20T22:37:09.259Z,23.58
2023-01-20T22:39:37.621Z,21.08
2023-01-20T22:42:06.574Z,23.98
2023-01-20T22:44:35.147Z,26.00
2023-01-20T22:47:05.723Z,22.50
2023-01-20T22:49:34.050Z,19.92
2023-01-20T22:52:03.738Z,20.08
2023-01-20T22:54:32.048Z,25.50
2023-01-20T22:57:00.465Z,20.50
2023-01-20T22:59:28.759Z,24.40
2023-01-20T23:01:57.129Z,22.67
2023-01-20T23:04:25.582Z,21.98
2023-01-20T23:06:53.950Z,23.65
2023-01-20T23:09:23.686Z,28.60
2023-01-20T23:11:52.159Z,24.13
2023-01-20T23:14:40.415Z,24.05
2023-01-20T23:17:09.055Z,25.20
2023-01-20T23:19:37.335Z,24.90
2023-01-20T23:22:05.661Z,28.00
2023-01-20T23:24:35.358Z,28.77
2023-01-20T23:27:03.714Z,24.55
2023-01-20T23:29:33.251Z,25.65
2023-01-20T23:32:01.908Z,27.25
2023-01-20T23:34:30.444Z,27.65
2023-01-20T23:36:58.726Z,31.15
2023-01-20T23:39:27.102Z,24.88
2023-01-20T23:41:57.829Z,26.73
2023-01-20T23:44:26.162Z,30.08
2023-01-20T23:46:54.474Z,30.33
2023-01-20T23:49:23.055Z,24.90
2023-01-20T23:51:51.749Z,26.75
2023-01-20T23:54:20.133Z,27.23
2023-01-20T23:56:48.451Z,27.70
2023-01-20T23:59:18.121Z,25.10
